ΕΜΥ, Εθνική Μετεωρολογική Υπηρεσία - Δελτία Καιρού, Προγνώσεις

ΑΕΡΟΝΑΥΤΙΛΙΑ

GREEK AIRPORTS CODES

TAF LGAV 250500Z 2506/2606 07010KT 9999 FEW025 BECMG 2509/2511 FEW025 BKN070=

EUROPEAN AIRPORTS CODES

LFPO 251000Z 19008KT 9999 -RA SCT012 SCT033 BKN060 10/08Q1003 TEMPO 4000 -RA=